sensor_id;sensor_type;location;lat;lon;timestamp;P1;durP1;ratioP1;P2;durP2;ratioP2
43146;SDS011;28752;48.266;7.402;2024-03-29T00:02:51;3.05;;;2.15;;
43146;SDS011;28752;48.266;7.402;2024-03-29T00:09:22;7.43;;;2.55;;
43146;SDS011;28752;48.266;7.402;2024-03-29T00:12:48;2.72;;;1.65;;
43146;SDS011;28752;48.266;7.402;2024-03-29T00:15:36;1.58;;;1.13;;
43146;SDS011;28752;48.266;7.402;2024-03-29T00:18:06;17.73;;;3.88;;
43146;SDS011;28752;48.266;7.402;2024-03-29T00:24:06;1.40;;;1.25;;
43146;SDS011;28752;48.266;7.402;2024-03-29T00:26:38;0.70;;;0.52;;
43146;SDS011;28752;48.266;7.402;2024-03-29T00:29:31;5.55;;;2.88;;
43146;SDS011;28752;48.266;7.402;2024-03-29T00:32:22;3.03;;;2.58;;
43146;SDS011;28752;48.266;7.402;2024-03-29T00:35:07;9.15;;;2.53;;
43146;SDS011;28752;48.266;7.402;2024-03-29T00:37:52;3.00;;;2.70;;
43146;SDS011;28752;48.266;7.402;2024-03-29T00:40:41;1.70;;;1.48;;
43146;SDS011;28752;48.266;7.402;2024-03-29T00:43:42;2.65;;;2.30;;
43146;SDS011;28752;48.266;7.402;2024-03-29T00:56:35;1.27;;;1.17;;
43146;SDS011;28752;48.266;7.402;2024-03-29T01:03:07;0.80;;;0.80;;
43146;SDS011;28752;48.266;7.402;2024-03-29T01:15:27;0.50;;;0.50;;
43146;SDS011;28752;48.266;7.402;2024-03-29T01:18:38;1.02;;;0.90;;
43146;SDS011;28752;48.266;7.402;2024-03-29T01:21:26;0.98;;;0.98;;
43146;SDS011;28752;48.266;7.402;2024-03-29T01:24:07;2.55;;;2.30;;
43146;SDS011;28752;48.266;7.402;2024-03-29T01:26:42;0.43;;;0.43;;
43146;SDS011;28752;48.266;7.402;2024-03-29T01:29:56;3.45;;;1.85;;
43146;SDS011;28752;48.266;7.402;2024-03-29T01:32:20;3.33;;;2.05;;
43146;SDS011;28752;48.266;7.402;2024-03-29T01:34:55;2.00;;;1.27;;
43146;SDS011;28752;48.266;7.402;2024-03-29T01:37:46;4.10;;;1.55;;
43146;SDS011;28752;48.266;7.402;2024-03-29T01:40:55;1.80;;;1.33;;
43146;SDS011;28752;48.266;7.402;2024-03-29T01:43:39;2.38;;;2.17;;
43146;SDS011;28752;48.266;7.402;2024-03-29T01:46:25;3.78;;;0.75;;
43146;SDS011;28752;48.266;7.402;2024-03-29T01:48:53;1.75;;;0.77;;
43146;SDS011;28752;48.266;7.402;2024-03-29T01:51:28;1.30;;;1.20;;
43146;SDS011;28752;48.266;7.402;2024-03-29T01:54:09;3.45;;;1.27;;
43146;SDS011;28752;48.266;7.402;2024-03-29T01:57:07;2.70;;;1.75;;
43146;SDS011;28752;48.266;7.402;2024-03-29T01:59:51;1.08;;;1.00;;
43146;SDS011;28752;48.266;7.402;2024-03-29T02:03:07;0.80;;;0.68;;
43146;SDS011;28752;48.266;7.402;2024-03-29T02:08:56;0.17;;;0.17;;
43146;SDS011;28752;48.266;7.402;2024-03-29T02:14:28;1.75;;;0.90;;
43146;SDS011;28752;48.266;7.402;2024-03-29T02:17:15;2.72;;;0.55;;
43146;SDS011;28752;48.266;7.402;2024-03-29T02:19:49;0.55;;;0.55;;
43146;SDS011;28752;48.266;7.402;2024-03-29T02:25:47;0.43;;;0.30;;
43146;SDS011;28752;48.266;7.402;2024-03-29T02:28:43;0.43;;;0.22;;
43146;SDS011;28752;48.266;7.402;2024-03-29T02:31:34;0.00;;;0.00;;
43146;SDS011;28752;48.266;7.402;2024-03-29T02:34:18;0.43;;;0.10;;
43146;SDS011;28752;48.266;7.402;2024-03-29T02:37:02;0.00;;;0.00;;
43146;SDS011;28752;48.266;7.402;2024-03-29T02:39:40;1.98;;;0.98;;
43146;SDS011;28752;48.266;7.402;2024-03-29T02:42:26;0.70;;;0.55;;
43146;SDS011;28752;48.266;7.402;2024-03-29T02:45:08;0.25;;;0.15;;
43146;SDS011;28752;48.266;7.402;2024-03-29T02:47:43;0.00;;;0.00;;
43146;SDS011;28752;48.266;7.402;2024-03-29T02:50:53;0.00;;;0.00;;
43146;SDS011;28752;48.266;7.402;2024-03-29T02:53:26;0.00;;;0.00;;
43146;SDS011;28752;48.266;7.402;2024-03-29T02:55:57;0.43;;;0.15;;
43146;SDS011;28752;48.266;7.402;2024-03-29T02:58:52;0.00;;;0.00;;
43146;SDS011;28752;48.266;7.402;2024-03-29T03:01:28;0.00;;;0.00;;
43146;SDS011;28752;48.266;7.402;2024-03-29T03:03:56;0.00;;;0.00;;
43146;SDS011;28752;48.266;7.402;2024-03-29T03:06:26;0.35;;;0.35;;
43146;SDS011;28752;48.266;7.402;2024-03-29T03:09:33;1.08;;;0.52;;
43146;SDS011;28752;48.266;7.402;2024-03-29T03:13:14;0.00;;;0.00;;
43146;SDS011;28752;48.266;7.402;2024-03-29T03:15:40;0.00;;;0.00;;
43146;SDS011;28752;48.266;7.402;2024-03-29T03:18:25;0.00;;;0.00;;
43146;SDS011;28752;48.266;7.402;2024-03-29T03:20:53;0.00;;;0.00;;
43146;SDS011;28752;48.266;7.402;2024-03-29T03:23:20;0.00;;;0.00;;
43146;SDS011;28752;48.266;7.402;2024-03-29T03:25:52;0.00;;;0.00;;
43146;SDS011;28752;48.266;7.402;2024-03-29T03:28:18;0.00;;;0.00;;
43146;SDS011;28752;48.266;7.402;2024-03-29T03:30:44;0.00;;;0.00;;
43146;SDS011;28752;48.266;7.402;2024-03-29T03:33:09;0.00;;;0.00;;
43146;SDS011;28752;48.266;7.402;2024-03-29T03:35:34;0.53;;;0.43;;
43146;SDS011;28752;48.266;7.402;2024-03-29T03:38:00;0.33;;;0.23;;
43146;SDS011;28752;48.266;7.402;2024-03-29T03:40:25;0.07;;;0.07;;
43146;SDS011;28752;48.266;7.402;2024-03-29T03:42:50;0.00;;;0.00;;
43146;SDS011;28752;48.266;7.402;2024-03-29T03:45:16;0.00;;;0.00;;
43146;SDS011;28752;48.266;7.402;2024-03-29T03:47:41;0.00;;;0.00;;
43146;SDS011;28752;48.266;7.402;2024-03-29T03:50:06;0.00;;;0.00;;
43146;SDS011;28752;48.266;7.402;2024-03-29T03:52:32;0.38;;;0.17;;
43146;SDS011;28752;48.266;7.402;2024-03-29T03:54:57;0.00;;;0.00;;
43146;SDS011;28752;48.266;7.402;2024-03-29T03:57:23;0.00;;;0.00;;
43146;SDS011;28752;48.266;7.402;2024-03-29T03:59:51;0.23;;;0.13;;
43146;SDS011;28752;48.266;7.402;2024-03-29T04:02:16;0.00;;;0.00;;
43146;SDS011;28752;48.266;7.402;2024-03-29T04:04:42;0.00;;;0.00;;
43146;SDS011;28752;48.266;7.402;2024-03-29T04:07:07;1.13;;;1.00;;
43146;SDS011;28752;48.266;7.402;2024-03-29T04:09:32;0.40;;;0.30;;
43146;SDS011;28752;48.266;7.402;2024-03-29T04:11:58;0.00;;;0.00;;
43146;SDS011;28752;48.266;7.402;2024-03-29T04:14:23;0.17;;;0.17;;
43146;SDS011;28752;48.266;7.402;2024-03-29T04:16:48;0.00;;;0.00;;
43146;SDS011;28752;48.266;7.402;2024-03-29T04:19:15;0.00;;;0.00;;
43146;SDS011;28752;48.266;7.402;2024-03-29T04:21:56;0.10;;;0.10;;
43146;SDS011;28752;48.266;7.402;2024-03-29T04:24:36;0.00;;;0.00;;
43146;SDS011;28752;48.266;7.402;2024-03-29T04:28:01;0.00;;;0.00;;
43146;SDS011;28752;48.266;7.402;2024-03-29T04:30:50;3.20;;;0.17;;
43146;SDS011;28752;48.266;7.402;2024-03-29T04:36:54;0.00;;;0.00;;
43146;SDS011;28752;48.266;7.402;2024-03-29T04:39:47;0.10;;;0.10;;
43146;SDS011;28752;48.266;7.402;2024-03-29T04:45:50;0.38;;;0.32;;
43146;SDS011;28752;48.266;7.402;2024-03-29T04:48:49;0.00;;;0.00;;
43146;SDS011;28752;48.266;7.402;2024-03-29T04:58:43;3.90;;;0.40;;
43146;SDS011;28752;48.266;7.402;2024-03-29T05:01:53;0.00;;;0.00;;
43146;SDS011;28752;48.266;7.402;2024-03-29T05:04:43;0.30;;;0.30;;
43146;SDS011;28752;48.266;7.402;2024-03-29T05:25:05;4.07;;;0.65;;
43146;SDS011;28752;48.266;7.402;2024-03-29T05:45:20;0.03;;;0.03;;
43146;SDS011;28752;48.266;7.402;2024-03-29T06:18:18;1.60;;;0.68;;
43146;SDS011;28752;48.266;7.402;2024-03-29T06:20:46;0.10;;;0.10;;
43146;SDS011;28752;48.266;7.402;2024-03-29T06:23:13;0.32;;;0.15;;
43146;SDS011;28752;48.266;7.402;2024-03-29T06:25:39;0.22;;;0.22;;
43146;SDS011;28752;48.266;7.402;2024-03-29T06:28:05;0.57;;;0.57;;
43146;SDS011;28752;48.266;7.402;2024-03-29T06:30:30;0.30;;;0.28;;
43146;SDS011;28752;48.266;7.402;2024-03-29T07:03:18;0.13;;;0.13;;
43146;SDS011;28752;48.266;7.402;2024-03-29T07:05:47;4.43;;;0.47;;
43146;SDS011;28752;48.266;7.402;2024-03-29T07:08:12;0.38;;;0.32;;
43146;SDS011;28752;48.266;7.402;2024-03-29T07:10:38;0.23;;;0.23;;
43146;SDS011;28752;48.266;7.402;2024-03-29T07:13:03;0.03;;;0.03;;
43146;SDS011;28752;48.266;7.402;2024-03-29T07:15:29;0.10;;;0.10;;
43146;SDS011;28752;48.266;7.402;2024-03-29T07:17:54;0.47;;;0.30;;
43146;SDS011;28752;48.266;7.402;2024-03-29T07:20:19;0.27;;;0.13;;
43146;SDS011;28752;48.266;7.402;2024-03-29T07:22:45;0.00;;;0.00;;
43146;SDS011;28752;48.266;7.402;2024-03-29T07:25:11;0.45;;;0.28;;
43146;SDS011;28752;48.266;7.402;2024-03-29T07:27:36;0.00;;;0.00;;
43146;SDS011;28752;48.266;7.402;2024-03-29T07:30:02;0.40;;;0.40;;
43146;SDS011;28752;48.266;7.402;2024-03-29T07:32:33;0.00;;;0.00;;
43146;SDS011;28752;48.266;7.402;2024-03-29T07:34:58;1.02;;;0.30;;
43146;SDS011;28752;48.266;7.402;2024-03-29T07:37:24;0.00;;;0.00;;
43146;SDS011;28752;48.266;7.402;2024-03-29T07:39:50;0.00;;;0.00;;
43146;SDS011;28752;48.266;7.402;2024-03-29T07:42:15;0.00;;;0.00;;
43146;SDS011;28752;48.266;7.402;2024-03-29T07:44:41;0.00;;;0.00;;
43146;SDS011;28752;48.266;7.402;2024-03-29T07:47:06;0.10;;;0.07;;
43146;SDS011;28752;48.266;7.402;2024-03-29T07:56:22;0.60;;;0.20;;
43146;SDS011;28752;48.266;7.402;2024-03-29T08:03:19;0.20;;;0.20;;
43146;SDS011;28752;48.266;7.402;2024-03-29T08:50:00;0.93;;;0.57;;
43146;SDS011;28752;48.266;7.402;2024-03-29T08:56:42;0.20;;;0.20;;
43146;SDS011;28752;48.266;7.402;2024-03-29T09:16:21;0.50;;;0.50;;
43146;SDS011;28752;48.266;7.402;2024-03-29T09:19:53;2.28;;;1.90;;
43146;SDS011;28752;48.266;7.402;2024-03-29T09:33:29;0.25;;;0.25;;
43146;SDS011;28752;48.266;7.402;2024-03-29T09:39:57;0.20;;;0.20;;
43146;SDS011;28752;48.266;7.402;2024-03-29T09:42:59;0.38;;;0.38;;
43146;SDS011;28752;48.266;7.402;2024-03-29T09:45:37;0.75;;;0.70;;
43146;SDS011;28752;48.266;7.402;2024-03-29T09:49:14;5.30;;;1.42;;
43146;SDS011;28752;48.266;7.402;2024-03-29T11:06:44;0.30;;;0.30;;
43146;SDS011;28752;48.266;7.402;2024-03-29T11:09:13;0.00;;;0.00;;
43146;SDS011;28752;48.266;7.402;2024-03-29T11:11:40;0.00;;;0.00;;
43146;SDS011;28752;48.266;7.402;2024-03-29T11:14:14;0.10;;;0.10;;
43146;SDS011;28752;48.266;7.402;2024-03-29T11:16:43;0.57;;;0.40;;
43146;SDS011;28752;48.266;7.402;2024-03-29T11:19:12;0.70;;;0.38;;
43146;SDS011;28752;48.266;7.402;2024-03-29T11:28:47;0.10;;;0.10;;
43146;SDS011;28752;48.266;7.402;2024-03-29T11:31:26;5.57;;;0.65;;
43146;SDS011;28752;48.266;7.402;2024-03-29T11:37:41;1.75;;;0.63;;
43146;SDS011;28752;48.266;7.402;2024-03-29T12:42:47;0.00;;;0.00;;
43146;SDS011;28752;48.266;7.402;2024-03-29T12:49:25;0.10;;;0.10;;
43146;SDS011;28752;48.266;7.402;2024-03-29T13:02:41;0.00;;;0.00;;
43146;SDS011;28752;48.266;7.402;2024-03-29T13:05:31;0.82;;;0.80;;
43146;SDS011;28752;48.266;7.402;2024-03-29T13:08:20;0.75;;;0.70;;
43146;SDS011;28752;48.266;7.402;2024-03-29T13:11:36;0.00;;;0.00;;
43146;SDS011;28752;48.266;7.402;2024-03-29T13:31:20;0.13;;;0.13;;
43146;SDS011;28752;48.266;7.402;2024-03-29T13:33:58;0.30;;;0.30;;
43146;SDS011;28752;48.266;7.402;2024-03-29T13:37:02;0.30;;;0.30;;
43146;SDS011;28752;48.266;7.402;2024-03-29T13:44:12;0.15;;;0.15;;
43146;SDS011;28752;48.266;7.402;2024-03-29T13:47:32;0.65;;;0.65;;
43146;SDS011;28752;48.266;7.402;2024-03-29T13:50:23;0.73;;;0.43;;
43146;SDS011;28752;48.266;7.402;2024-03-29T13:53:14;3.22;;;0.63;;
43146;SDS011;28752;48.266;7.402;2024-03-29T13:59:23;0.00;;;0.00;;
43146;SDS011;28752;48.266;7.402;2024-03-29T14:06:09;0.17;;;0.17;;
43146;SDS011;28752;48.266;7.402;2024-03-29T14:08:35;0.43;;;0.38;;
43146;SDS011;28752;48.266;7.402;2024-03-29T14:11:01;3.53;;;0.43;;
43146;SDS011;28752;48.266;7.402;2024-03-29T14:13:27;4.28;;;2.08;;
43146;SDS011;28752;48.266;7.402;2024-03-29T14:15:52;0.90;;;0.70;;
43146;SDS011;28752;48.266;7.402;2024-03-29T14:18:19;6.35;;;1.60;;
43146;SDS011;28752;48.266;7.402;2024-03-29T14:20:44;2.87;;;1.40;;
43146;SDS011;28752;48.266;7.402;2024-03-29T14:23:09;5.33;;;1.83;;
43146;SDS011;28752;48.266;7.402;2024-03-29T14:25:37;1.42;;;0.68;;
43146;SDS011;28752;48.266;7.402;2024-03-29T14:28:03;2.03;;;0.50;;
43146;SDS011;28752;48.266;7.402;2024-03-29T14:30:29;1.20;;;0.70;;
43146;SDS011;28752;48.266;7.402;2024-03-29T14:32:55;1.05;;;0.73;;
43146;SDS011;28752;48.266;7.402;2024-03-29T14:35:24;1.00;;;0.85;;
43146;SDS011;28752;48.266;7.402;2024-03-29T14:41:20;0.65;;;0.45;;
43146;SDS011;28752;48.266;7.402;2024-03-29T14:50:52;1.27;;;0.73;;
43146;SDS011;28752;48.266;7.402;2024-03-29T15:00:19;0.90;;;0.82;;
43146;SDS011;28752;48.266;7.402;2024-03-29T15:07:14;2.08;;;0.90;;
43146;SDS011;28752;48.266;7.402;2024-03-29T15:13:23;3.35;;;0.98;;
43146;SDS011;28752;48.266;7.402;2024-03-29T15:16:03;1.98;;;0.95;;
43146;SDS011;28752;48.266;7.402;2024-03-29T15:22:43;0.43;;;0.43;;
43146;SDS011;28752;48.266;7.402;2024-03-29T15:26:03;0.65;;;0.65;;
43146;SDS011;28752;48.266;7.402;2024-03-29T15:28:45;13.70;;;1.10;;
43146;SDS011;28752;48.266;7.402;2024-03-29T15:38:47;0.73;;;0.63;;
43146;SDS011;28752;48.266;7.402;2024-03-29T15:41:01;2.03;;;1.08;;
43146;SDS011;28752;48.266;7.402;2024-03-29T15:43:53;1.02;;;0.30;;
43146;SDS011;28752;48.266;7.402;2024-03-29T15:46:59;0.68;;;0.40;;
43146;SDS011;28752;48.266;7.402;2024-03-29T15:49:36;6.00;;;1.25;;
43146;SDS011;28752;48.266;7.402;2024-03-29T15:59:33;0.73;;;0.40;;
43146;SDS011;28752;48.266;7.402;2024-03-29T16:06:21;2.33;;;0.80;;
43146;SDS011;28752;48.266;7.402;2024-03-29T16:19:28;0.30;;;0.25;;
43146;SDS011;28752;48.266;7.402;2024-03-29T16:59:58;0.70;;;0.63;;
43146;SDS011;28752;48.266;7.402;2024-03-29T17:20:44;0.10;;;0.10;;
43146;SDS011;28752;48.266;7.402;2024-03-29T18:35:30;0.40;;;0.28;;
43146;SDS011;28752;48.266;7.402;2024-03-29T18:38:56;1.23;;;0.70;;
43146;SDS011;28752;48.266;7.402;2024-03-29T18:41:49;0.77;;;0.75;;
43146;SDS011;28752;48.266;7.402;2024-03-29T18:58:31;0.75;;;0.60;;
43146;SDS011;28752;48.266;7.402;2024-03-29T19:08:36;1.50;;;0.85;;
43146;SDS011;28752;48.266;7.402;2024-03-29T19:18:31;0.80;;;0.80;;
43146;SDS011;28752;48.266;7.402;2024-03-29T19:21:42;3.05;;;0.88;;
43146;SDS011;28752;48.266;7.402;2024-03-29T19:47:57;1.38;;;1.25;;
43146;SDS011;28752;48.266;7.402;2024-03-29T19:50:43;2.30;;;1.63;;
43146;SDS011;28752;48.266;7.402;2024-03-29T19:53:26;2.03;;;1.33;;
43146;SDS011;28752;48.266;7.402;2024-03-29T19:59:29;1.48;;;1.38;;
43146;SDS011;28752;48.266;7.402;2024-03-29T20:02:10;1.98;;;1.15;;
43146;SDS011;28752;48.266;7.402;2024-03-29T20:08:15;3.17;;;2.92;;
43146;SDS011;28752;48.266;7.402;2024-03-29T20:11:11;7.57;;;3.30;;
43146;SDS011;28752;48.266;7.402;2024-03-29T20:20:51;2.75;;;1.65;;
43146;SDS011;28752;48.266;7.402;2024-03-29T20:36:43;3.35;;;1.95;;
43146;SDS011;28752;48.266;7.402;2024-03-29T20:43:20;1.00;;;0.82;;
43146;SDS011;28752;48.266;7.402;2024-03-29T20:49:43;4.30;;;2.67;;
43146;SDS011;28752;48.266;7.402;2024-03-29T21:09:16;3.17;;;0.90;;
43146;SDS011;28752;48.266;7.402;2024-03-29T21:11:41;1.27;;;1.17;;
43146;SDS011;28752;48.266;7.402;2024-03-29T21:14:07;0.82;;;0.68;;
43146;SDS011;28752;48.266;7.402;2024-03-29T21:16:32;0.97;;;0.70;;
43146;SDS011;28752;48.266;7.402;2024-03-29T21:19:00;3.63;;;0.63;;
43146;SDS011;28752;48.266;7.402;2024-03-29T21:21:26;0.30;;;0.30;;
43146;SDS011;28752;48.266;7.402;2024-03-29T21:23:53;0.40;;;0.30;;
43146;SDS011;28752;48.266;7.402;2024-03-29T21:26:32;0.75;;;0.47;;
43146;SDS011;28752;48.266;7.402;2024-03-29T21:29:24;0.15;;;0.10;;
43146;SDS011;28752;48.266;7.402;2024-03-29T21:32:33;0.88;;;0.88;;
43146;SDS011;28752;48.266;7.402;2024-03-29T21:35:05;0.63;;;0.63;;
43146;SDS011;28752;48.266;7.402;2024-03-29T21:38:31;0.75;;;0.75;;
43146;SDS011;28752;48.266;7.402;2024-03-29T21:41:05;0.25;;;0.25;;
43146;SDS011;28752;48.266;7.402;2024-03-29T21:47:34;0.17;;;0.17;;
43146;SDS011;28752;48.266;7.402;2024-03-29T21:50:54;0.85;;;0.82;;
43146;SDS011;28752;48.266;7.402;2024-03-29T22:07:45;1.63;;;0.95;;
43146;SDS011;28752;48.266;7.402;2024-03-29T22:13:41;0.70;;;0.70;;
43146;SDS011;28752;48.266;7.402;2024-03-29T22:23:11;0.65;;;0.57;;
43146;SDS011;28752;48.266;7.402;2024-03-29T22:25:36;1.80;;;1.33;;
43146;SDS011;28752;48.266;7.402;2024-03-29T22:28:02;1.67;;;0.80;;
43146;SDS011;28752;48.266;7.402;2024-03-29T22:30:27;1.17;;;1.07;;
43146;SDS011;28752;48.266;7.402;2024-03-29T22:32:52;4.43;;;1.57;;
43146;SDS011;28752;48.266;7.402;2024-03-29T22:35:18;2.73;;;1.73;;
43146;SDS011;28752;48.266;7.402;2024-03-29T22:37:43;7.13;;;1.07;;
43146;SDS011;28752;48.266;7.402;2024-03-29T22:40:09;0.63;;;0.63;;
43146;SDS011;28752;48.266;7.402;2024-03-29T22:42:35;0.47;;;0.47;;
43146;SDS011;28752;48.266;7.402;2024-03-29T22:45:00;1.90;;;0.83;;
43146;SDS011;28752;48.266;7.402;2024-03-29T22:47:26;13.73;;;1.13;;
43146;SDS011;28752;48.266;7.402;2024-03-29T22:49:51;2.67;;;2.47;;
43146;SDS011;28752;48.266;7.402;2024-03-29T22:52:16;1.30;;;1.20;;
43146;SDS011;28752;48.266;7.402;2024-03-29T22:54:41;2.60;;;1.73;;
43146;SDS011;28752;48.266;7.402;2024-03-29T22:57:07;2.43;;;1.70;;
43146;SDS011;28752;48.266;7.402;2024-03-29T22:59:32;1.37;;;1.20;;
43146;SDS011;28752;48.266;7.402;2024-03-29T23:01:58;4.03;;;1.73;;
43146;SDS011;28752;48.266;7.402;2024-03-29T23:04:23;0.77;;;0.77;;
43146;SDS011;28752;48.266;7.402;2024-03-29T23:06:48;3.23;;;1.77;;
43146;SDS011;28752;48.266;7.402;2024-03-29T23:09:13;2.90;;;2.20;;
43146;SDS011;28752;48.266;7.402;2024-03-29T23:11:39;2.50;;;2.20;;
43146;SDS011;28752;48.266;7.402;2024-03-29T23:14:04;2.07;;;0.93;;
43146;SDS011;28752;48.266;7.402;2024-03-29T23:16:29;1.77;;;1.53;;
43146;SDS011;28752;48.266;7.402;2024-03-29T23:18:55;17.10;;;1.80;;
43146;SDS011;28752;48.266;7.402;2024-03-29T23:21:20;11.77;;;1.73;;
43146;SDS011;28752;48.266;7.402;2024-03-29T23:23:46;4.03;;;1.70;;
43146;SDS011;28752;48.266;7.402;2024-03-29T23:26:11;1.43;;;1.33;;
43146;SDS011;28752;48.266;7.402;2024-03-29T23:28:41;1.55;;;0.93;;
43146;SDS011;28752;48.266;7.402;2024-03-29T23:31:07;1.27;;;1.10;;
43146;SDS011;28752;48.266;7.402;2024-03-29T23:33:32;2.17;;;1.13;;
43146;SDS011;28752;48.266;7.402;2024-03-29T23:35:57;5.00;;;1.13;;
43146;SDS011;28752;48.266;7.402;2024-03-29T23:38:23;1.03;;;1.00;;
43146;SDS011;28752;48.266;7.402;2024-03-29T23:41:09;1.80;;;1.27;;
43146;SDS011;28752;48.266;7.402;2024-03-29T23:43:50;3.13;;;2.67;;
43146;SDS011;28752;48.266;7.402;2024-03-29T23:46:41;1.55;;;1.40;;
43146;SDS011;28752;48.266;7.402;2024-03-29T23:49:31;0.30;;;0.30;;
43146;SDS011;28752;48.266;7.402;2024-03-29T23:58:27;1.10;;;1.00;;
